sensor_id;sensor_type;location;lat;lon;timestamp;pressure;altitude;pressure_sealevel;temperature;humidity
46412;BME280;32113;42.012;24.870;2023-02-15T00:01:41;100231.59;;;7.73;42.43
46412;BME280;32113;42.012;24.870;2023-02-15T00:04:07;100231.75;;;7.81;42.01
46412;BME280;32113;42.012;24.870;2023-02-15T00:06:33;100234.59;;;7.97;41.77
46412;BME280;32113;42.012;24.870;2023-02-15T00:08:58;100242.38;;;8.01;42.01
46412;BME280;32113;42.012;24.870;2023-02-15T00:11:25;100249.16;;;8.01;41.74
46412;BME280;32113;42.012;24.870;2023-02-15T00:14:13;100247.97;;;7.83;42.14
46412;BME280;32113;42.012;24.870;2023-02-15T00:16:40;100256.56;;;7.88;41.76
46412;BME280;32113;42.012;24.870;2023-02-15T00:19:07;100250.47;;;7.80;41.92
46412;BME280;32113;42.012;24.870;2023-02-15T00:21:34;100253.81;;;7.79;42.22
46412;BME280;32113;42.012;24.870;2023-02-15T00:24:01;100253.97;;;7.85;42.51
46412;BME280;32113;42.012;24.870;2023-02-15T00:26:27;100263.53;;;7.96;42.26
46412;BME280;32113;42.012;24.870;2023-02-15T00:28:53;100260.22;;;8.00;42.02
46412;BME280;32113;42.012;24.870;2023-02-15T00:31:20;100262.91;;;8.08;41.91
46412;BME280;32113;42.012;24.870;2023-02-15T00:33:46;100260.25;;;8.01;41.85
46412;BME280;32113;42.012;24.870;2023-02-15T00:36:11;100261.16;;;8.05;41.69
46412;BME280;32113;42.012;24.870;2023-02-15T00:38:37;100265.56;;;8.11;41.53
46412;BME280;32113;42.012;24.870;2023-02-15T00:41:05;100268.84;;;8.05;41.73
46412;BME280;32113;42.012;24.870;2023-02-15T00:43:32;100268.13;;;8.14;41.16
46412;BME280;32113;42.012;24.870;2023-02-15T00:45:58;100260.28;;;8.05;41.16
46412;BME280;32113;42.012;24.870;2023-02-15T00:48:23;100269.53;;;7.98;41.57
46412;BME280;32113;42.012;24.870;2023-02-15T00:50:51;100272.13;;;7.99;41.42
46412;BME280;32113;42.012;24.870;2023-02-15T00:53:17;100274.84;;;8.07;41.45
46412;BME280;32113;42.012;24.870;2023-02-15T00:55:42;100269.66;;;7.61;40.73
46412;BME280;32113;42.012;24.870;2023-02-15T00:58:09;100277.19;;;7.16;41.05
46412;BME280;32113;42.012;24.870;2023-02-15T01:00:36;100276.28;;;6.45;42.21
46412;BME280;32113;42.012;24.870;2023-02-15T01:03:02;100279.16;;;5.95;43.65
46412;BME280;32113;42.012;24.870;2023-02-15T01:05:27;100278.94;;;5.58;44.72
46412;BME280;32113;42.012;24.870;2023-02-15T01:07:55;100269.22;;;5.73;44.76
46412;BME280;32113;42.012;24.870;2023-02-15T01:10:20;100261.13;;;5.87;44.78
46412;BME280;32113;42.012;24.870;2023-02-15T01:12:46;100269.03;;;5.67;44.61
46412;BME280;32113;42.012;24.870;2023-02-15T01:15:11;100258.03;;;5.68;44.47
46412;BME280;32113;42.012;24.870;2023-02-15T01:17:36;100260.03;;;5.78;45.15
46412;BME280;32113;42.012;24.870;2023-02-15T01:20:02;100258.72;;;5.93;45.30
46412;BME280;32113;42.012;24.870;2023-02-15T01:22:28;100258.34;;;6.08;44.53
46412;BME280;32113;42.012;24.870;2023-02-15T01:24:53;100257.59;;;5.83;44.19
46412;BME280;32113;42.012;24.870;2023-02-15T01:27:19;100247.34;;;5.80;44.75
46412;BME280;32113;42.012;24.870;2023-02-15T01:29:44;100244.00;;;5.83;45.22
46412;BME280;32113;42.012;24.870;2023-02-15T01:32:09;100238.25;;;5.90;45.61
46412;BME280;32113;42.012;24.870;2023-02-15T01:34:35;100236.69;;;5.95;45.92
46412;BME280;32113;42.012;24.870;2023-02-15T01:37:00;100236.38;;;5.83;45.33
46412;BME280;32113;42.012;24.870;2023-02-15T01:39:26;100235.50;;;5.82;45.22
46412;BME280;32113;42.012;24.870;2023-02-15T01:41:51;100224.69;;;5.89;45.45
46412;BME280;32113;42.012;24.870;2023-02-15T01:44:46;100229.47;;;6.09;45.59
46412;BME280;32113;42.012;24.870;2023-02-15T01:47:16;100233.31;;;6.25;44.63
46412;BME280;32113;42.012;24.870;2023-02-15T01:49:45;100236.19;;;6.39;44.71
46412;BME280;32113;42.012;24.870;2023-02-15T01:52:14;100228.25;;;6.28;44.17
46412;BME280;32113;42.012;24.870;2023-02-15T01:54:43;100229.44;;;6.08;44.11
46412;BME280;32113;42.012;24.870;2023-02-15T01:57:13;100227.78;;;6.10;44.74
46412;BME280;32113;42.012;24.870;2023-02-15T01:59:43;100230.38;;;6.11;44.65
46412;BME280;32113;42.012;24.870;2023-02-15T02:02:13;100243.31;;;6.19;44.26
46412;BME280;32113;42.012;24.870;2023-02-15T02:04:44;100241.78;;;6.24;44.48
46412;BME280;32113;42.012;24.870;2023-02-15T02:07:12;100259.63;;;6.24;43.77
46412;BME280;32113;42.012;24.870;2023-02-15T02:09:39;100254.72;;;6.32;44.43
46412;BME280;32113;42.012;24.870;2023-02-15T02:12:05;100253.84;;;6.31;43.80
46412;BME280;32113;42.012;24.870;2023-02-15T02:14:31;100265.50;;;6.23;44.01
46412;BME280;32113;42.012;24.870;2023-02-15T02:30:43;100272.41;;;5.66;45.37
46412;BME280;32113;42.012;24.870;2023-02-15T02:41:53;100273.03;;;5.59;46.09
46412;BME280;32113;42.012;24.870;2023-02-15T02:44:25;100262.31;;;5.69;46.18
46412;BME280;32113;42.012;24.870;2023-02-15T02:47:06;100267.69;;;5.49;46.42
46412;BME280;32113;42.012;24.870;2023-02-15T02:49:39;100264.25;;;5.49;47.34
46412;BME280;32113;42.012;24.870;2023-02-15T02:52:38;100270.22;;;5.49;46.72
46412;BME280;32113;42.012;24.870;2023-02-15T02:55:09;100272.56;;;5.72;46.13
46412;BME280;32113;42.012;24.870;2023-02-15T02:57:37;100266.63;;;5.43;47.18
46412;BME280;32113;42.012;24.870;2023-02-15T03:00:05;100272.13;;;5.57;47.09
46412;BME280;32113;42.012;24.870;2023-02-15T03:02:37;100270.28;;;5.52;46.42
46412;BME280;32113;42.012;24.870;2023-02-15T03:05:09;100266.19;;;5.56;46.62
46412;BME280;32113;42.012;24.870;2023-02-15T03:07:36;100273.84;;;5.58;47.77
46412;BME280;32113;42.012;24.870;2023-02-15T03:10:04;100265.81;;;5.73;46.38
46412;BME280;32113;42.012;24.870;2023-02-15T03:12:36;100262.56;;;5.78;45.65
46412;BME280;32113;42.012;24.870;2023-02-15T03:15:33;100267.84;;;5.85;46.24
46412;BME280;32113;42.012;24.870;2023-02-15T03:18:31;100276.53;;;5.62;46.81
46412;BME280;32113;42.012;24.870;2023-02-15T03:21:00;100284.91;;;5.58;46.32
46412;BME280;32113;42.012;24.870;2023-02-15T03:23:27;100281.41;;;5.55;46.65
46412;BME280;32113;42.012;24.870;2023-02-15T03:26:00;100278.31;;;5.65;46.71
46412;BME280;32113;42.012;24.870;2023-02-15T03:28:30;100281.25;;;5.79;46.47
46412;BME280;32113;42.012;24.870;2023-02-15T03:31:00;100288.22;;;5.85;46.16
46412;BME280;32113;42.012;24.870;2023-02-15T03:33:28;100283.00;;;5.80;46.10
46412;BME280;32113;42.012;24.870;2023-02-15T03:38:57;100272.72;;;5.77;45.81
46412;BME280;32113;42.012;24.870;2023-02-15T03:41:27;100265.28;;;5.85;46.48
46412;BME280;32113;42.012;24.870;2023-02-15T03:44:13;100273.09;;;5.91;46.00
46412;BME280;32113;42.012;24.870;2023-02-15T03:46:43;100270.16;;;6.06;46.13
46412;BME280;32113;42.012;24.870;2023-02-15T03:49:14;100276.19;;;6.08;45.76
46412;BME280;32113;42.012;24.870;2023-02-15T03:51:44;100270.41;;;6.15;45.78
46412;BME280;32113;42.012;24.870;2023-02-15T03:54:31;100282.31;;;6.15;46.45
46412;BME280;32113;42.012;24.870;2023-02-15T03:57:11;100290.47;;;6.35;45.82
46412;BME280;32113;42.012;24.870;2023-02-15T03:59:57;100293.69;;;6.28;46.03
46412;BME280;32113;42.012;24.870;2023-02-15T04:05:23;100290.22;;;6.26;46.72
46412;BME280;32113;42.012;24.870;2023-02-15T04:07:48;100302.19;;;6.28;46.46
46412;BME280;32113;42.012;24.870;2023-02-15T04:10:14;100304.28;;;6.11;46.29
46412;BME280;32113;42.012;24.870;2023-02-15T04:12:58;100302.81;;;6.20;46.56
46412;BME280;32113;42.012;24.870;2023-02-15T04:15:23;100301.25;;;6.25;46.47
46412;BME280;32113;42.012;24.870;2023-02-15T04:18:07;100304.19;;;6.39;46.32
46412;BME280;32113;42.012;24.870;2023-02-15T04:20:33;100304.28;;;6.43;46.72
46412;BME280;32113;42.012;24.870;2023-02-15T04:23:17;100303.47;;;6.44;46.27
46412;BME280;32113;42.012;24.870;2023-02-15T04:26:03;100304.69;;;6.59;46.24
46412;BME280;32113;42.012;24.870;2023-02-15T04:28:30;100302.28;;;6.64;45.11
46412;BME280;32113;42.012;24.870;2023-02-15T04:30:55;100308.91;;;6.57;45.51
46412;BME280;32113;42.012;24.870;2023-02-15T04:33:20;100306.97;;;6.48;45.84
46412;BME280;32113;42.012;24.870;2023-02-15T04:35:46;100316.84;;;6.36;46.13
46412;BME280;32113;42.012;24.870;2023-02-15T04:38:11;100308.84;;;6.23;46.92
46412;BME280;32113;42.012;24.870;2023-02-15T04:40:37;100321.25;;;6.41;46.27
46412;BME280;32113;42.012;24.870;2023-02-15T04:43:02;100324.06;;;6.52;45.85
46412;BME280;32113;42.012;24.870;2023-02-15T04:45:27;100326.22;;;6.69;46.13
46412;BME280;32113;42.012;24.870;2023-02-15T04:47:53;100330.47;;;6.70;44.30
46412;BME280;32113;42.012;24.870;2023-02-15T04:50:18;100337.88;;;6.61;42.87
46412;BME280;32113;42.012;24.870;2023-02-15T04:52:44;100342.06;;;5.97;43.12
46412;BME280;32113;42.012;24.870;2023-02-15T04:55:09;100340.19;;;5.62;44.78
46412;BME280;32113;42.012;24.870;2023-02-15T04:57:35;100343.47;;;5.58;43.98
46412;BME280;32113;42.012;24.870;2023-02-15T05:00:00;100353.75;;;5.08;45.15
46412;BME280;32113;42.012;24.870;2023-02-15T05:02:26;100355.94;;;4.97;45.08
46412;BME280;32113;42.012;24.870;2023-02-15T05:04:51;100352.91;;;4.57;45.98
46412;BME280;32113;42.012;24.870;2023-02-15T05:07:17;100365.66;;;4.11;46.98
46412;BME280;32113;42.012;24.870;2023-02-15T05:09:45;100371.84;;;3.72;48.23
46412;BME280;32113;42.012;24.870;2023-02-15T05:12:10;100386.69;;;3.20;49.63
46412;BME280;32113;42.012;24.870;2023-02-15T05:14:36;100384.28;;;3.23;49.95
46412;BME280;32113;42.012;24.870;2023-02-15T05:17:01;100397.22;;;2.88;50.83
46412;BME280;32113;42.012;24.870;2023-02-15T05:19:28;100387.66;;;2.81;51.37
46412;BME280;32113;42.012;24.870;2023-02-15T05:21:54;100403.38;;;2.54;51.70
46412;BME280;32113;42.012;24.870;2023-02-15T05:24:19;100397.31;;;2.70;51.93
46412;BME280;32113;42.012;24.870;2023-02-15T05:27:03;100405.16;;;2.37;52.39
46412;BME280;32113;42.012;24.870;2023-02-15T05:29:47;100407.13;;;2.43;52.66
46412;BME280;32113;42.012;24.870;2023-02-15T05:32:13;100409.25;;;2.33;53.07
46412;BME280;32113;42.012;24.870;2023-02-15T05:34:39;100409.56;;;2.41;52.92
46412;BME280;32113;42.012;24.870;2023-02-15T05:37:04;100410.44;;;2.42;52.95
46412;BME280;32113;42.012;24.870;2023-02-15T05:39:30;100406.56;;;2.30;53.54
46412;BME280;32113;42.012;24.870;2023-02-15T05:41:58;100418.34;;;2.30;53.07
46412;BME280;32113;42.012;24.870;2023-02-15T05:44:25;100428.44;;;2.10;53.57
46412;BME280;32113;42.012;24.870;2023-02-15T05:46:50;100434.16;;;2.06;54.24
46412;BME280;32113;42.012;24.870;2023-02-15T05:49:16;100436.47;;;2.01;53.80
46412;BME280;32113;42.012;24.870;2023-02-15T05:51:41;100431.25;;;1.98;54.00
46412;BME280;32113;42.012;24.870;2023-02-15T05:54:07;100426.56;;;2.06;54.14
46412;BME280;32113;42.012;24.870;2023-02-15T05:56:33;100431.03;;;2.12;54.05
46412;BME280;32113;42.012;24.870;2023-02-15T05:58:58;100438.38;;;2.05;53.81
46412;BME280;32113;42.012;24.870;2023-02-15T06:01:24;100439.63;;;2.15;54.10
46412;BME280;32113;42.012;24.870;2023-02-15T06:03:49;100445.34;;;2.29;53.24
46412;BME280;32113;42.012;24.870;2023-02-15T06:06:15;100453.91;;;2.13;54.04
46412;BME280;32113;42.012;24.870;2023-02-15T06:08:41;100445.56;;;2.34;53.03
46412;BME280;32113;42.012;24.870;2023-02-15T06:11:07;100449.78;;;2.33;53.02
46412;BME280;32113;42.012;24.870;2023-02-15T06:13:33;100445.31;;;2.47;52.99
46412;BME280;32113;42.012;24.870;2023-02-15T06:15:59;100445.38;;;2.49;52.59
46412;BME280;32113;42.012;24.870;2023-02-15T06:18:24;100443.28;;;2.78;52.06
46412;BME280;32113;42.012;24.870;2023-02-15T06:20:50;100435.34;;;2.70;51.69
46412;BME280;32113;42.012;24.870;2023-02-15T06:23:16;100450.31;;;2.46;51.97
46412;BME280;32113;42.012;24.870;2023-02-15T06:25:42;100433.13;;;2.58;51.98
46412;BME280;32113;42.012;24.870;2023-02-15T06:28:09;100457.56;;;2.38;52.20
46412;BME280;32113;42.012;24.870;2023-02-15T06:30:34;100451.53;;;2.54;52.11
46412;BME280;32113;42.012;24.870;2023-02-15T06:33:00;100448.66;;;2.66;51.61
46412;BME280;32113;42.012;24.870;2023-02-15T06:35:25;100447.19;;;2.71;51.51
46412;BME280;32113;42.012;24.870;2023-02-15T06:37:51;100448.66;;;2.66;51.84
46412;BME280;32113;42.012;24.870;2023-02-15T06:40:16;100450.22;;;2.62;51.81
46412;BME280;32113;42.012;24.870;2023-02-15T06:42:42;100455.63;;;2.70;51.42
46412;BME280;32113;42.012;24.870;2023-02-15T06:45:09;100442.44;;;2.99;50.94
46412;BME280;32113;42.012;24.870;2023-02-15T06:47:35;100451.53;;;2.74;51.13
46412;BME280;32113;42.012;24.870;2023-02-15T06:50:00;100454.03;;;2.92;51.18
46412;BME280;32113;42.012;24.870;2023-02-15T06:52:26;100458.38;;;2.95;50.78
46412;BME280;32113;42.012;24.870;2023-02-15T06:54:51;100458.03;;;3.07;50.69
46412;BME280;32113;42.012;24.870;2023-02-15T06:57:17;100452.06;;;3.06;50.36
46412;BME280;32113;42.012;24.870;2023-02-15T06:59:42;100443.44;;;3.22;50.20
46412;BME280;32113;42.012;24.870;2023-02-15T07:02:10;100450.94;;;3.40;49.51
46412;BME280;32113;42.012;24.870;2023-02-15T07:04:36;100449.50;;;3.26;50.10
46412;BME280;32113;42.012;24.870;2023-02-15T07:07:01;100442.09;;;3.31;50.00
46412;BME280;32113;42.012;24.870;2023-02-15T07:09:27;100434.50;;;3.52;49.84
46412;BME280;32113;42.012;24.870;2023-02-15T07:11:52;100434.13;;;3.64;49.27
46412;BME280;32113;42.012;24.870;2023-02-15T07:14:36;100433.56;;;3.50;49.14
46412;BME280;32113;42.012;24.870;2023-02-15T07:17:02;100436.22;;;3.74;48.94
46412;BME280;32113;42.012;24.870;2023-02-15T07:19:27;100422.66;;;3.74;48.67
46412;BME280;32113;42.012;24.870;2023-02-15T07:21:52;100436.59;;;3.62;49.11
46412;BME280;32113;42.012;24.870;2023-02-15T07:24:18;100423.16;;;3.86;48.76
46412;BME280;32113;42.012;24.870;2023-02-15T07:26:43;100416.06;;;4.23;48.11
46412;BME280;32113;42.012;24.870;2023-02-15T07:29:09;100421.25;;;4.49;47.61
46412;BME280;32113;42.012;24.870;2023-02-15T07:31:34;100427.97;;;4.71;47.30
46412;BME280;32113;42.012;24.870;2023-02-15T07:34:00;100422.97;;;4.97;47.62
46412;BME280;32113;42.012;24.870;2023-02-15T07:36:25;100422.78;;;5.17;46.68
46412;BME280;32113;42.012;24.870;2023-02-15T07:38:50;100408.94;;;5.35;45.68
46412;BME280;32113;42.012;24.870;2023-02-15T07:41:16;100416.25;;;5.51;45.58
46412;BME280;32113;42.012;24.870;2023-02-15T07:43:43;100422.81;;;5.45;45.38
46412;BME280;32113;42.012;24.870;2023-02-15T07:46:15;100412.97;;;5.56;46.78
46412;BME280;32113;42.012;24.870;2023-02-15T07:48:42;100415.63;;;5.86;46.99
46412;BME280;32113;42.012;24.870;2023-02-15T07:51:09;100420.88;;;6.18;46.77
46412;BME280;32113;42.012;24.870;2023-02-15T07:53:35;100419.72;;;6.38;47.67
46412;BME280;32113;42.012;24.870;2023-02-15T07:56:02;100418.81;;;6.66;47.21
46412;BME280;32113;42.012;24.870;2023-02-15T07:58:28;100421.25;;;6.94;47.00
46412;BME280;32113;42.012;24.870;2023-02-15T08:01:13;100416.84;;;7.22;45.76
46412;BME280;32113;42.012;24.870;2023-02-15T08:03:39;100422.38;;;7.39;45.40
46412;BME280;32113;42.012;24.870;2023-02-15T08:06:04;100416.88;;;7.57;44.76
46412;BME280;32113;42.012;24.870;2023-02-15T08:08:30;100412.16;;;7.74;44.59
46412;BME280;32113;42.012;24.870;2023-02-15T08:11:15;100408.25;;;7.91;43.66
46412;BME280;32113;42.012;24.870;2023-02-15T08:14:07;100405.19;;;8.07;43.45
46412;BME280;32113;42.012;24.870;2023-02-15T08:19:00;100402.31;;;8.32;43.09
46412;BME280;32113;42.012;24.870;2023-02-15T08:21:27;100399.28;;;8.51;42.89
46412;BME280;32113;42.012;24.870;2023-02-15T08:23:55;100400.09;;;8.49;42.32
46412;BME280;32113;42.012;24.870;2023-02-15T08:26:21;100392.00;;;8.70;42.77
46412;BME280;32113;42.012;24.870;2023-02-15T08:28:47;100409.38;;;8.87;41.45
46412;BME280;32113;42.012;24.870;2023-02-15T08:31:14;100397.53;;;8.92;41.54
46412;BME280;32113;42.012;24.870;2023-02-15T08:33:41;100395.78;;;8.89;41.21
46412;BME280;32113;42.012;24.870;2023-02-15T08:36:10;100402.94;;;9.09;41.24
46412;BME280;32113;42.012;24.870;2023-02-15T08:38:36;100395.34;;;9.15;41.51
46412;BME280;32113;42.012;24.870;2023-02-15T08:41:19;100397.50;;;9.41;40.81
46412;BME280;32113;42.012;24.870;2023-02-15T08:43:49;100393.38;;;9.51;40.80
46412;BME280;32113;42.012;24.870;2023-02-15T08:46:17;100395.25;;;9.63;40.85
46412;BME280;32113;42.012;24.870;2023-02-15T08:48:43;100399.69;;;9.72;40.44
46412;BME280;32113;42.012;24.870;2023-02-15T08:51:12;100388.84;;;9.92;40.10
46412;BME280;32113;42.012;24.870;2023-02-15T08:53:40;100384.72;;;10.02;39.34
46412;BME280;32113;42.012;24.870;2023-02-15T08:56:07;100395.94;;;10.11;39.15
46412;BME280;32113;42.012;24.870;2023-02-15T08:58:33;100400.50;;;10.34;39.06
46412;BME280;32113;42.012;24.870;2023-02-15T09:00:58;100393.94;;;10.54;39.03
46412;BME280;32113;42.012;24.870;2023-02-15T09:03:24;100392.41;;;10.70;38.15
46412;BME280;32113;42.012;24.870;2023-02-15T09:05:50;100390.06;;;10.95;38.03
46412;BME280;32113;42.012;24.870;2023-02-15T09:08:16;100397.84;;;11.04;37.57
46412;BME280;32113;42.012;24.870;2023-02-15T09:10:41;100386.94;;;11.28;37.10
46412;BME280;32113;42.012;24.870;2023-02-15T09:13:07;100404.31;;;11.57;35.95
46412;BME280;32113;42.012;24.870;2023-02-15T09:15:32;100390.69;;;11.71;36.56
46412;BME280;32113;42.012;24.870;2023-02-15T09:17:58;100389.16;;;12.04;35.81
46412;BME280;32113;42.012;24.870;2023-02-15T09:20:31;100373.91;;;12.53;35.12
46412;BME280;32113;42.012;24.870;2023-02-15T09:22:56;100380.84;;;12.93;34.47
46412;BME280;32113;42.012;24.870;2023-02-15T09:25:22;100380.91;;;13.18;33.37
46412;BME280;32113;42.012;24.870;2023-02-15T09:27:47;100372.28;;;13.44;33.16
46412;BME280;32113;42.012;24.870;2023-02-15T09:30:13;100375.75;;;13.61;32.81
46412;BME280;32113;42.012;24.870;2023-02-15T09:32:38;100363.66;;;13.76;32.04
46412;BME280;32113;42.012;24.870;2023-02-15T09:35:04;100361.09;;;13.73;32.21
46412;BME280;32113;42.012;24.870;2023-02-15T09:37:30;100362.78;;;13.88;31.91
46412;BME280;32113;42.012;24.870;2023-02-15T09:39:57;100366.16;;;14.07;31.73
46412;BME280;32113;42.012;24.870;2023-02-15T09:43:05;100365.19;;;14.36;31.16
46412;BME280;32113;42.012;24.870;2023-02-15T09:56:10;100353.66;;;14.95;30.35
46412;BME280;32113;42.012;24.870;2023-02-15T10:04:54;100345.69;;;15.21;29.24
46412;BME280;32113;42.012;24.870;2023-02-15T10:13:20;100338.13;;;14.98;29.53
46412;BME280;32113;42.012;24.870;2023-02-15T10:16:19;100336.38;;;15.03;29.33
46412;BME280;32113;42.012;24.870;2023-02-15T10:26:44;100320.66;;;15.23;29.57
46412;BME280;32113;42.012;24.870;2023-02-15T10:29:17;100328.38;;;15.30;29.13
46412;BME280;32113;42.012;24.870;2023-02-15T10:31:52;100324.84;;;15.37;28.91
46412;BME280;32113;42.012;24.870;2023-02-15T10:34:25;100323.91;;;15.47;28.83
46412;BME280;32113;42.012;24.870;2023-02-15T10:39:26;100301.19;;;15.73;28.76
46412;BME280;32113;42.012;24.870;2023-02-15T10:45:04;100306.63;;;15.51;28.84
46412;BME280;32113;42.012;24.870;2023-02-15T10:50:29;100294.59;;;15.48;29.34
46412;BME280;32113;42.012;24.870;2023-02-15T11:04:57;100285.72;;;15.71;28.76
46412;BME280;32113;42.012;24.870;2023-02-15T11:07:33;100287.41;;;15.74;28.44
46412;BME280;32113;42.012;24.870;2023-02-15T11:12:50;100269.41;;;15.63;29.20
46412;BME280;32113;42.012;24.870;2023-02-15T11:17:55;100266.03;;;15.58;28.70
46412;BME280;32113;42.012;24.870;2023-02-15T11:20:27;100272.00;;;15.63;28.79
46412;BME280;32113;42.012;24.870;2023-02-15T11:22:55;100252.44;;;15.37;28.86
46412;BME280;32113;42.012;24.870;2023-02-15T11:25:27;100247.16;;;15.46;29.27
46412;BME280;32113;42.012;24.870;2023-02-15T11:27:55;100250.72;;;15.37;28.93
46412;BME280;32113;42.012;24.870;2023-02-15T11:30:23;100255.09;;;15.34;29.02
46412;BME280;32113;42.012;24.870;2023-02-15T11:32:53;100251.78;;;15.19;28.77
46412;BME280;32113;42.012;24.870;2023-02-15T11:35:27;100247.53;;;15.14;29.07
46412;BME280;32113;42.012;24.870;2023-02-15T11:43:16;100243.53;;;14.80;29.66
46412;BME280;32113;42.012;24.870;2023-02-15T11:45:45;100254.72;;;14.82;29.76
46412;BME280;32113;42.012;24.870;2023-02-15T11:48:12;100249.47;;;14.90;29.48
46412;BME280;32113;42.012;24.870;2023-02-15T11:50:39;100238.19;;;15.00;28.73
46412;BME280;32113;42.012;24.870;2023-02-15T11:53:11;100239.06;;;14.97;29.33
46412;BME280;32113;42.012;24.870;2023-02-15T11:55:37;100231.22;;;15.10;29.55
46412;BME280;32113;42.012;24.870;2023-02-15T12:00:37;100224.19;;;15.21;29.10
46412;BME280;32113;42.012;24.870;2023-02-15T12:03:19;100230.16;;;15.27;28.74
46412;BME280;32113;42.012;24.870;2023-02-15T12:05:49;100220.00;;;15.09;28.53
46412;BME280;32113;42.012;24.870;2023-02-15T12:08:20;100221.78;;;15.03;28.91
46412;BME280;32113;42.012;24.870;2023-02-15T12:10:57;100214.88;;;15.05;29.00
46412;BME280;32113;42.012;24.870;2023-02-15T12:13:24;100210.44;;;15.18;28.88
46412;BME280;32113;42.012;24.870;2023-02-15T12:15:55;100218.19;;;15.18;28.84
46412;BME280;32113;42.012;24.870;2023-02-15T12:18:42;100210.28;;;15.32;29.00
46412;BME280;32113;42.012;24.870;2023-02-15T12:21:15;100207.50;;;15.49;29.21
46412;BME280;32113;42.012;24.870;2023-02-15T12:23:51;100204.94;;;15.47;28.05
46412;BME280;32113;42.012;24.870;2023-02-15T12:26:32;100205.06;;;15.36;28.28
46412;BME280;32113;42.012;24.870;2023-02-15T12:29:07;100209.38;;;15.36;28.30
46412;BME280;32113;42.012;24.870;2023-02-15T12:31:40;100216.78;;;15.64;32.76
46412;BME280;32113;42.012;24.870;2023-02-15T12:34:21;100211.63;;;15.62;28.61
46412;BME280;32113;42.012;24.870;2023-02-15T12:36:53;100214.28;;;15.59;28.41
46412;BME280;32113;42.012;24.870;2023-02-15T12:39:30;100212.53;;;15.60;28.33
46412;BME280;32113;42.012;24.870;2023-02-15T12:44:35;100212.53;;;15.60;28.33
46412;BME280;32113;42.012;24.870;2023-02-15T12:49:34;100209.06;;;15.62;28.39
46412;BME280;32113;42.012;24.870;2023-02-15T12:52:05;100204.84;;;15.55;28.35
46412;BME280;32113;42.012;24.870;2023-02-15T12:54:47;100203.06;;;15.59;28.46
46412;BME280;32113;42.012;24.870;2023-02-15T12:57:30;100199.56;;;15.65;28.38
46412;BME280;32113;42.012;24.870;2023-02-15T13:00:02;100203.78;;;15.70;28.24
46412;BME280;32113;42.012;24.870;2023-02-15T13:07:51;100195.88;;;15.80;27.80
46412;BME280;32113;42.012;24.870;2023-02-15T13:10:27;100194.03;;;15.89;27.35
46412;BME280;32113;42.012;24.870;2023-02-15T13:12:55;100201.81;;;15.89;27.01
46412;BME280;32113;42.012;24.870;2023-02-15T13:15:42;100193.22;;;15.87;27.26
46412;BME280;32113;42.012;24.870;2023-02-15T13:18:23;100194.94;;;15.87;27.04
46412;BME280;32113;42.012;24.870;2023-02-15T13:20:51;100194.94;;;15.87;27.26
46412;BME280;32113;42.012;24.870;2023-02-15T13:23:26;100190.69;;;15.83;26.96
46412;BME280;32113;42.012;24.870;2023-02-15T13:25:55;100181.19;;;15.83;26.42
46412;BME280;32113;42.012;24.870;2023-02-15T13:28:26;100187.22;;;15.82;26.44
46412;BME280;32113;42.012;24.870;2023-02-15T13:30:54;100195.06;;;15.79;26.19
46412;BME280;32113;42.012;24.870;2023-02-15T13:33:35;100190.81;;;15.72;26.17
46412;BME280;32113;42.012;24.870;2023-02-15T13:39:38;100192.47;;;15.79;26.24
46412;BME280;32113;42.012;24.870;2023-02-15T13:42:00;100190.81;;;15.72;25.59
46412;BME280;32113;42.012;24.870;2023-02-15T13:44:52;100189.13;;;15.71;26.14
46412;BME280;32113;42.012;24.870;2023-02-15T13:47:46;100183.97;;;15.68;26.09
46412;BME280;32113;42.012;24.870;2023-02-15T13:53:22;100177.75;;;15.83;26.12
46412;BME280;32113;42.012;24.870;2023-02-15T13:55:57;100181.97;;;15.88;25.98
46412;BME280;32113;42.012;24.870;2023-02-15T14:14:43;100184.56;;;15.88;25.68
46412;BME280;32113;42.012;24.870;2023-02-15T14:17:29;100186.19;;;15.97;25.48
46412;BME280;32113;42.012;24.870;2023-02-15T14:20:20;100189.66;;;15.96;25.27
46412;BME280;32113;42.012;24.870;2023-02-15T14:22:55;100188.06;;;15.86;25.47
46412;BME280;32113;42.012;24.870;2023-02-15T14:25:40;100181.13;;;15.88;25.09
46412;BME280;32113;42.012;24.870;2023-02-15T14:30:37;100184.56;;;15.88;24.72
46412;BME280;32113;42.012;24.870;2023-02-15T14:35:50;100174.13;;;15.93;24.59
46412;BME280;32113;42.012;24.870;2023-02-15T14:38:39;100178.50;;;15.89;24.65
46412;BME280;32113;42.012;24.870;2023-02-15T14:41:13;100180.19;;;15.95;24.88
46412;BME280;32113;42.012;24.870;2023-02-15T14:47:07;100183.66;;;15.91;26.03
46412;BME280;32113;42.012;24.870;2023-02-15T14:49:38;100190.66;;;15.84;27.44
46412;BME280;32113;42.012;24.870;2023-02-15T14:52:08;100189.00;;;15.79;27.99
46412;BME280;32113;42.012;24.870;2023-02-15T14:59:54;100188.53;;;15.50;27.51
46412;BME280;32113;42.012;24.870;2023-02-15T15:02:45;100200.03;;;15.24;28.27
46412;BME280;32113;42.012;24.870;2023-02-15T15:07:49;100198.75;;;14.75;28.44
46412;BME280;32113;42.012;24.870;2023-02-15T15:12:46;100195.94;;;13.91;29.21
46412;BME280;32113;42.012;24.870;2023-02-15T15:15:44;100194.34;;;13.67;30.13
46412;BME280;32113;42.012;24.870;2023-02-15T15:18:48;100201.25;;;13.56;31.07
46412;BME280;32113;42.012;24.870;2023-02-15T15:35:33;100219.47;;;12.60;31.84
46412;BME280;32113;42.012;24.870;2023-02-15T15:49:07;100233.03;;;11.88;32.42
46412;BME280;32113;42.012;24.870;2023-02-15T15:51:39;100237.22;;;11.61;32.47
46412;BME280;32113;42.012;24.870;2023-02-15T15:54:05;100238.81;;;11.34;32.87